METAR AND TAF INFORMATION
METAR FOR LEGE
ADDS - METARS form results

(2313 UTC 22 May 2018)
Data provider http://aviationweather.gov/adds/metars/
 
METAR text: LEGE 222300Z 00000KT 3000 BR FEW010 13/13 Q1016
Conditions at: LEGE (GERONA/COSTA BRA, ES) observed 2300 UTC 22 May 2018
Temperature: 13.0°C (55°F)
Dewpoint: 13.0°C (55°F) [RH = 100%]
Pressure (altimeter): 30.00 inches Hg (1016.0 mb)
Winds: calm
Visibility: 1.86 miles (2.99 km)
Ceiling: at least 12,000 feet AGL
Clouds: few clouds at 1000 feet AGL
Weather: BR  (mist)

METAR text: LEGE 222230Z 00000KT 3000 BR FEW010 14/14 Q1016
Conditions at: LEGE (GERONA/COSTA BRA, ES) observed 2230 UTC 22 May 2018
Temperature: 14.0°C (57°F)
Dewpoint: 14.0°C (57°F) [RH = 100%]
Pressure (altimeter): 30.00 inches Hg (1016.0 mb)
Winds: calm
Visibility: 1.86 miles (2.99 km)
Ceiling: at least 12,000 feet AGL
Clouds: few clouds at 1000 feet AGL
Weather: BR  (mist)

Forecast for: LEGE (GERONA/COSTA BRA, ES)
Text: TAF AMD LEGE 222210Z 2222/2318 VRB04KT 9999 SCT035 TX26/2313Z TN12/2306Z
Forecast period: 2200 UTC 22 May 2018 to 0900 UTC 23 May 2018
Forecast type: FROM: standard forecast or significant change
Winds: variable direction winds at 5 MPH (4 knots; 2.1 m/s)
Visibility: 6 or more miles (10+ km)
Clouds: scattered clouds at 3500 feet AGL
Weather: no significant weather forecast for this period
Forecast for: LEGE (GERONA/COSTA BRA, ES)
Text: TAF AMD LEGE 222210Z 2222/2318 VRB04KT 9999 SCT035 TX26/2313Z TN12/2306Z
Forecast period: 2200 UTC 22 May 2018 to 0900 UTC 23 May 2018
Forecast type: FROM: standard forecast or significant change
Winds: variable direction winds at 5 MPH (4 knots; 2.1 m/s)
Visibility: 6 or more miles (10+ km)
Clouds: scattered clouds at 3500 feet AGL
Weather: no significant weather forecast for this period
Forecast for: LEGE (GERONA/COSTA BRA, ES)
Text: TAF AMD LEGE 222210Z 2222/2318 VRB04KT 9999 SCT035 TX26/2313Z TN12/2306Z
Forecast period: 2200 UTC 22 May 2018 to 0600 UTC 23 May 2018
Forecast type: TEMPORARY: The following changes expected for less than half the time period
Visibility: 1.24 miles (2.00 km)
Weather: BR  (mist)
Forecast for: LEGE (GERONA/COSTA BRA, ES)
Text: TAF AMD LEGE 222210Z 2222/2318 VRB04KT 9999 SCT035 TX26/2313Z TN12/2306Z
Forecast period: 2200 UTC 22 May 2018 to 0600 UTC 23 May 2018
Forecast type: TEMPORARY: The following changes expected for less than half the time period
Visibility: 1.24 miles (2.00 km)
Weather: BR  (mist)
Forecast for: LEGE (GERONA/COSTA BRA, ES)
Text: TAF AMD LEGE 222210Z 2222/2318 VRB04KT 9999 SCT035 TX26/2313Z TN12/2306Z
Forecast period: 0900 to 1800 UTC 23 May 2018
Forecast type: BECOMING: Conditions expected to become as follows by 1200 UTC 23 May 2018
Winds: from the S (180 degrees) at 12 MPH (10 knots; 5.2 m/s)
Visibility: 6 or more miles (10+ km)
Clouds: scattered clouds at 3500 feet AGL
Weather: no significant weather forecast for this period
Forecast for: LEGE (GERONA/COSTA BRA, ES)
Text: TAF AMD LEGE 222210Z 2222/2318 VRB04KT 9999 SCT035 TX26/2313Z TN12/2306Z
Forecast period: 0900 to 1800 UTC 23 May 2018
Forecast type: BECOMING: Conditions expected to become as follows by 1200 UTC 23 May 2018
Winds: from the S (180 degrees) at 12 MPH (10 knots; 5.2 m/s)
Visibility: 6 or more miles (10+ km)
Clouds: scattered clouds at 3500 feet AGL
Weather: no significant weather forecast for this period
Forecast for: LEGE (GERONA/COSTA BRA, ES)
Text: TAF AMD LEGE 222210Z 2222/2318 VRB04KT 9999 SCT035 TX26/2313Z TN12/2306Z
Forecast period: 1200 to 1800 UTC 23 May 2018
Forecast type: TEMPORARY: The following changes expected for less than half the time period
Visibility: 2.49 miles (4.01 km)
Clouds: scattered clouds at 3000 feet AGL
Weather: TSRA  (rain associated with thunderstorm(s))
Forecast for: LEGE (GERONA/COSTA BRA, ES)
Text: TAF AMD LEGE 222210Z 2222/2318 VRB04KT 9999 SCT035 TX26/2313Z TN12/2306Z
Forecast period: 1200 to 1800 UTC 23 May 2018
Forecast type: TEMPORARY: The following changes expected for less than half the time period
Visibility: 2.49 miles (4.01 km)
Clouds: scattered clouds at 3000 feet AGL
Weather: TSRA  (rain associated with thunderstorm(s))

 AIRPORT MAP

 RUNWAY INFORMATION
Runway 02 Runway length 7874 ft Runway width 148 ft
Runway elevation 403 ft Runway displaced threshold 0 ft Runway heading 16
Runway 20 Runway length 7874 ft Runway width 148 ft
Runway elevation 468 ft Runway displaced threshold 0 ft Runway heading 196

 AIRPORT FREQUENCIES
Type APP Name APP Frequency 120.9 MHZ
Type GND Name GND Frequency 121.7 MHZ
Type TWR Name TWR Frequency 118.5 MHZ

 AIRPORT NEAR NAVIGATION AIDS
Type VOR-DME Name Gerona Frequency 114100 KHZ
Type NDB Name Gerona Frequency 412 KHZ



Powered by Virtual Airlines Manager [v2.6.2]